sensor_id;sensor_type;location;lat;lon;timestamp;P1;durP1;ratioP1;P2;durP2;ratioP2
61411;SDS011;47278;49.732;7.690;2022-09-16T01:45:43;10.85;;;4.57;;
61411;SDS011;47278;49.732;7.690;2022-09-16T01:48:20;8.93;;;4.10;;
61411;SDS011;47278;49.732;7.690;2022-09-16T01:53:41;5.32;;;3.45;;
61411;SDS011;47278;49.732;7.690;2022-09-16T01:56:19;7.63;;;3.22;;
61411;SDS011;47278;49.732;7.690;2022-09-16T01:59:06;8.02;;;3.70;;
61411;SDS011;47278;49.732;7.690;2022-09-16T02:04:13;6.28;;;4.53;;
61411;SDS011;47278;49.732;7.690;2022-09-16T02:06:44;7.60;;;4.57;;
61411;SDS011;47278;49.732;7.690;2022-09-16T02:09:14;9.27;;;4.40;;
61411;SDS011;47278;49.732;7.690;2022-09-16T02:11:44;7.35;;;4.03;;
61411;SDS011;47278;49.732;7.690;2022-09-16T02:14:16;6.57;;;3.83;;
61411;SDS011;47278;49.732;7.690;2022-09-16T02:16:50;8.73;;;3.92;;
61411;SDS011;47278;49.732;7.690;2022-09-16T02:19:32;7.15;;;4.10;;
61411;SDS011;47278;49.732;7.690;2022-09-16T02:21:58;7.03;;;3.70;;
61411;SDS011;47278;49.732;7.690;2022-09-16T02:24:28;9.82;;;4.18;;
61411;SDS011;47278;49.732;7.690;2022-09-16T02:26:57;9.55;;;4.07;;
61411;SDS011;47278;49.732;7.690;2022-09-16T02:29:26;8.65;;;4.05;;
61411;SDS011;47278;49.732;7.690;2022-09-16T02:31:58;10.45;;;3.80;;
61411;SDS011;47278;49.732;7.690;2022-09-16T02:34:28;5.53;;;3.70;;
61411;SDS011;47278;49.732;7.690;2022-09-16T02:37:00;6.63;;;3.47;;
61411;SDS011;47278;49.732;7.690;2022-09-16T02:39:31;13.02;;;4.10;;
61411;SDS011;47278;49.732;7.690;2022-09-16T02:42:01;14.55;;;3.90;;
61411;SDS011;47278;49.732;7.690;2022-09-16T02:44:27;5.90;;;3.75;;
61411;SDS011;47278;49.732;7.690;2022-09-16T02:47:01;7.18;;;3.85;;
61411;SDS011;47278;49.732;7.690;2022-09-16T02:52:17;10.82;;;4.13;;
61411;SDS011;47278;49.732;7.690;2022-09-16T02:55:27;10.52;;;3.90;;
61411;SDS011;47278;49.732;7.690;2022-09-16T02:57:55;6.72;;;3.60;;
61411;SDS011;47278;49.732;7.690;2022-09-16T03:00:20;7.85;;;3.40;;
61411;SDS011;47278;49.732;7.690;2022-09-16T03:02:46;9.65;;;3.90;;
61411;SDS011;47278;49.732;7.690;2022-09-16T03:05:12;9.52;;;4.10;;
61411;SDS011;47278;49.732;7.690;2022-09-16T03:07:38;7.00;;;3.67;;
61411;SDS011;47278;49.732;7.690;2022-09-16T03:10:07;10.82;;;3.97;;
61411;SDS011;47278;49.732;7.690;2022-09-16T03:15:32;8.68;;;3.92;;
61411;SDS011;47278;49.732;7.690;2022-09-16T03:24:10;9.25;;;3.88;;
61411;SDS011;47278;49.732;7.690;2022-09-16T03:26:57;8.95;;;4.25;;
61411;SDS011;47278;49.732;7.690;2022-09-16T03:29:34;11.70;;;3.97;;
61411;SDS011;47278;49.732;7.690;2022-09-16T03:37:25;5.95;;;4.00;;
61411;SDS011;47278;49.732;7.690;2022-09-16T03:39:58;11.40;;;4.00;;
61411;SDS011;47278;49.732;7.690;2022-09-16T03:42:26;9.55;;;3.70;;
61411;SDS011;47278;49.732;7.690;2022-09-16T03:44:52;7.03;;;3.88;;
61411;SDS011;47278;49.732;7.690;2022-09-16T03:47:18;10.23;;;4.00;;
61411;SDS011;47278;49.732;7.690;2022-09-16T03:49:44;9.63;;;3.70;;
61411;SDS011;47278;49.732;7.690;2022-09-16T03:52:09;7.32;;;3.50;;
61411;SDS011;47278;49.732;7.690;2022-09-16T03:54:35;8.90;;;3.67;;
61411;SDS011;47278;49.732;7.690;2022-09-16T03:57:02;5.78;;;3.60;;
61411;SDS011;47278;49.732;7.690;2022-09-16T03:59:28;5.75;;;3.40;;
61411;SDS011;47278;49.732;7.690;2022-09-16T04:01:54;10.55;;;3.70;;
61411;SDS011;47278;49.732;7.690;2022-09-16T04:04:20;6.30;;;3.90;;
61411;SDS011;47278;49.732;7.690;2022-09-16T04:06:46;9.10;;;3.72;;
61411;SDS011;47278;49.732;7.690;2022-09-16T04:09:12;9.65;;;3.50;;
61411;SDS011;47278;49.732;7.690;2022-09-16T04:11:39;14.50;;;4.15;;
61411;SDS011;47278;49.732;7.690;2022-09-16T04:14:05;11.43;;;3.90;;
61411;SDS011;47278;49.732;7.690;2022-09-16T04:16:31;7.10;;;4.15;;
61411;SDS011;47278;49.732;7.690;2022-09-16T04:18:57;7.65;;;3.72;;
61411;SDS011;47278;49.732;7.690;2022-09-16T04:21:23;7.40;;;3.78;;
61411;SDS011;47278;49.732;7.690;2022-09-16T04:23:49;7.25;;;3.60;;
61411;SDS011;47278;49.732;7.690;2022-09-16T04:26:15;10.60;;;3.85;;
61411;SDS011;47278;49.732;7.690;2022-09-16T04:28:41;8.93;;;3.83;;
61411;SDS011;47278;49.732;7.690;2022-09-16T04:31:10;11.23;;;4.60;;
61411;SDS011;47278;49.732;7.690;2022-09-16T04:33:38;12.43;;;4.55;;
61411;SDS011;47278;49.732;7.690;2022-09-16T04:36:07;10.50;;;5.13;;
61411;SDS011;47278;49.732;7.690;2022-09-16T04:38:38;8.77;;;4.43;;
61411;SDS011;47278;49.732;7.690;2022-09-16T04:41:12;12.63;;;5.13;;
61411;SDS011;47278;49.732;7.690;2022-09-16T04:43:42;13.93;;;5.25;;
61411;SDS011;47278;49.732;7.690;2022-09-16T04:46:08;9.38;;;4.20;;
61411;SDS011;47278;49.732;7.690;2022-09-16T04:48:35;10.00;;;4.05;;
61411;SDS011;47278;49.732;7.690;2022-09-16T04:51:04;9.15;;;4.40;;
61411;SDS011;47278;49.732;7.690;2022-09-16T04:53:35;11.57;;;4.45;;
61411;SDS011;47278;49.732;7.690;2022-09-16T04:56:05;9.48;;;4.35;;
61411;SDS011;47278;49.732;7.690;2022-09-16T04:58:34;9.27;;;3.90;;
61411;SDS011;47278;49.732;7.690;2022-09-16T05:01:06;10.15;;;4.07;;
61411;SDS011;47278;49.732;7.690;2022-09-16T05:03:39;11.18;;;3.83;;
61411;SDS011;47278;49.732;7.690;2022-09-16T05:06:14;9.27;;;3.90;;
61411;SDS011;47278;49.732;7.690;2022-09-16T05:08:41;9.63;;;3.67;;
61411;SDS011;47278;49.732;7.690;2022-09-16T05:11:16;8.73;;;4.35;;
61411;SDS011;47278;49.732;7.690;2022-09-16T05:13:46;11.05;;;4.35;;
61411;SDS011;47278;49.732;7.690;2022-09-16T05:16:13;9.02;;;3.90;;
61411;SDS011;47278;49.732;7.690;2022-09-16T05:18:41;7.72;;;4.45;;
61411;SDS011;47278;49.732;7.690;2022-09-16T05:21:09;11.07;;;4.30;;
61411;SDS011;47278;49.732;7.690;2022-09-16T05:23:36;9.25;;;4.22;;
61411;SDS011;47278;49.732;7.690;2022-09-16T05:26:07;6.03;;;3.70;;
61411;SDS011;47278;49.732;7.690;2022-09-16T05:28:34;5.45;;;3.40;;
61411;SDS011;47278;49.732;7.690;2022-09-16T05:33:37;7.97;;;3.40;;
61411;SDS011;47278;49.732;7.690;2022-09-16T05:36:07;5.60;;;3.35;;
61411;SDS011;47278;49.732;7.690;2022-09-16T05:38:36;12.48;;;3.97;;
61411;SDS011;47278;49.732;7.690;2022-09-16T05:41:02;14.95;;;3.88;;
61411;SDS011;47278;49.732;7.690;2022-09-16T05:43:28;7.68;;;3.53;;
61411;SDS011;47278;49.732;7.690;2022-09-16T05:45:55;12.52;;;3.80;;
61411;SDS011;47278;49.732;7.690;2022-09-16T05:48:21;10.15;;;3.80;;
61411;SDS011;47278;49.732;7.690;2022-09-16T05:50:57;10.40;;;3.97;;
61411;SDS011;47278;49.732;7.690;2022-09-16T05:53:30;5.95;;;3.97;;
61411;SDS011;47278;49.732;7.690;2022-09-16T05:56:00;7.90;;;3.90;;
61411;SDS011;47278;49.732;7.690;2022-09-16T05:58:27;7.38;;;3.63;;
61411;SDS011;47278;49.732;7.690;2022-09-16T06:00:57;9.20;;;3.28;;
61411;SDS011;47278;49.732;7.690;2022-09-16T06:03:28;7.68;;;3.78;;
61411;SDS011;47278;49.732;7.690;2022-09-16T06:08:26;17.48;;;3.90;;
61411;SDS011;47278;49.732;7.690;2022-09-16T06:10:53;8.45;;;3.53;;
61411;SDS011;47278;49.732;7.690;2022-09-16T06:13:19;7.68;;;4.03;;
61411;SDS011;47278;49.732;7.690;2022-09-16T06:15:48;9.35;;;3.53;;
61411;SDS011;47278;49.732;7.690;2022-09-16T06:18:15;7.53;;;3.33;;
61411;SDS011;47278;49.732;7.690;2022-09-16T06:20:42;6.28;;;3.38;;
61411;SDS011;47278;49.732;7.690;2022-09-16T06:23:09;9.30;;;3.20;;
61411;SDS011;47278;49.732;7.690;2022-09-16T06:25:35;9.77;;;3.10;;
61411;SDS011;47278;49.732;7.690;2022-09-16T06:28:01;10.38;;;3.42;;
61411;SDS011;47278;49.732;7.690;2022-09-16T06:30:27;9.82;;;2.80;;
61411;SDS011;47278;49.732;7.690;2022-09-16T06:32:53;7.32;;;2.78;;
61411;SDS011;47278;49.732;7.690;2022-09-16T06:35:18;6.10;;;2.88;;
61411;SDS011;47278;49.732;7.690;2022-09-16T06:37:44;9.18;;;2.75;;
61411;SDS011;47278;49.732;7.690;2022-09-16T06:40:10;6.85;;;2.83;;
61411;SDS011;47278;49.732;7.690;2022-09-16T06:42:36;7.55;;;2.80;;
61411;SDS011;47278;49.732;7.690;2022-09-16T06:45:01;10.63;;;2.65;;
61411;SDS011;47278;49.732;7.690;2022-09-16T06:47:28;8.45;;;3.25;;
61411;SDS011;47278;49.732;7.690;2022-09-16T06:49:57;7.53;;;3.20;;
61411;SDS011;47278;49.732;7.690;2022-09-16T06:52:23;7.68;;;2.80;;
61411;SDS011;47278;49.732;7.690;2022-09-16T06:54:49;5.95;;;2.70;;
61411;SDS011;47278;49.732;7.690;2022-09-16T06:57:15;8.70;;;2.78;;
61411;SDS011;47278;49.732;7.690;2022-09-16T06:59:42;9.55;;;3.08;;
61411;SDS011;47278;49.732;7.690;2022-09-16T07:02:09;11.18;;;2.55;;
61411;SDS011;47278;49.732;7.690;2022-09-16T07:04:35;7.32;;;2.33;;
61411;SDS011;47278;49.732;7.690;2022-09-16T07:07:01;6.80;;;2.58;;
61411;SDS011;47278;49.732;7.690;2022-09-16T07:09:27;7.32;;;2.58;;
61411;SDS011;47278;49.732;7.690;2022-09-16T07:11:53;6.22;;;2.58;;
61411;SDS011;47278;49.732;7.690;2022-09-16T07:14:19;5.65;;;2.10;;
61411;SDS011;47278;49.732;7.690;2022-09-16T07:16:45;5.50;;;2.30;;
61411;SDS011;47278;49.732;7.690;2022-09-16T07:19:11;6.00;;;2.33;;
61411;SDS011;47278;49.732;7.690;2022-09-16T07:21:36;3.22;;;1.83;;
61411;SDS011;47278;49.732;7.690;2022-09-16T07:24:02;6.28;;;2.15;;
61411;SDS011;47278;49.732;7.690;2022-09-16T07:26:33;7.82;;;2.08;;
61411;SDS011;47278;49.732;7.690;2022-09-16T07:29:02;5.00;;;2.25;;
61411;SDS011;47278;49.732;7.690;2022-09-16T07:31:33;5.35;;;2.45;;
61411;SDS011;47278;49.732;7.690;2022-09-16T07:34:01;7.25;;;2.20;;
61411;SDS011;47278;49.732;7.690;2022-09-16T07:36:29;7.47;;;1.90;;
61411;SDS011;47278;49.732;7.690;2022-09-16T07:38:58;5.72;;;2.13;;
61411;SDS011;47278;49.732;7.690;2022-09-16T07:41:25;5.65;;;2.10;;
61411;SDS011;47278;49.732;7.690;2022-09-16T07:43:53;8.93;;;2.10;;
61411;SDS011;47278;49.732;7.690;2022-09-16T07:46:19;6.93;;;2.03;;
61411;SDS011;47278;49.732;7.690;2022-09-16T07:48:47;5.65;;;1.85;;
61411;SDS011;47278;49.732;7.690;2022-09-16T07:51:14;4.35;;;2.10;;
61411;SDS011;47278;49.732;7.690;2022-09-16T07:53:42;6.43;;;1.92;;
61411;SDS011;47278;49.732;7.690;2022-09-16T07:56:09;6.22;;;2.72;;
61411;SDS011;47278;49.732;7.690;2022-09-16T07:58:35;4.78;;;1.55;;
61411;SDS011;47278;49.732;7.690;2022-09-16T08:01:02;6.55;;;2.33;;
61411;SDS011;47278;49.732;7.690;2022-09-16T08:03:30;6.15;;;1.67;;
61411;SDS011;47278;49.732;7.690;2022-09-16T08:06:00;7.20;;;1.65;;
61411;SDS011;47278;49.732;7.690;2022-09-16T08:08:30;8.23;;;2.45;;
61411;SDS011;47278;49.732;7.690;2022-09-16T08:10:56;4.03;;;1.85;;
61411;SDS011;47278;49.732;7.690;2022-09-16T08:13:23;6.68;;;1.48;;
61411;SDS011;47278;49.732;7.690;2022-09-16T08:15:50;4.82;;;1.33;;
61411;SDS011;47278;49.732;7.690;2022-09-16T08:18:18;12.85;;;2.10;;
61411;SDS011;47278;49.732;7.690;2022-09-16T08:20:43;8.75;;;3.67;;
61411;SDS011;47278;49.732;7.690;2022-09-16T08:23:09;6.30;;;1.60;;
61411;SDS011;47278;49.732;7.690;2022-09-16T08:25:35;4.10;;;1.15;;
61411;SDS011;47278;49.732;7.690;2022-09-16T08:28:01;6.13;;;2.05;;
61411;SDS011;47278;49.732;7.690;2022-09-16T08:30:28;3.65;;;1.10;;
61411;SDS011;47278;49.732;7.690;2022-09-16T08:32:56;6.80;;;1.45;;
61411;SDS011;47278;49.732;7.690;2022-09-16T08:35:23;6.97;;;1.70;;
61411;SDS011;47278;49.732;7.690;2022-09-16T08:37:50;7.40;;;1.73;;
61411;SDS011;47278;49.732;7.690;2022-09-16T08:40:17;3.20;;;1.42;;
61411;SDS011;47278;49.732;7.690;2022-09-16T08:45:30;5.07;;;1.65;;
61411;SDS011;47278;49.732;7.690;2022-09-16T08:50:36;8.30;;;1.42;;
61411;SDS011;47278;49.732;7.690;2022-09-16T08:53:06;6.03;;;1.52;;
61411;SDS011;47278;49.732;7.690;2022-09-16T08:55:55;6.68;;;1.30;;
61411;SDS011;47278;49.732;7.690;2022-09-16T08:58:23;3.30;;;1.30;;
61411;SDS011;47278;49.732;7.690;2022-09-16T09:01:37;3.30;;;1.50;;
61411;SDS011;47278;49.732;7.690;2022-09-16T09:03:45;4.07;;;1.20;;
61411;SDS011;47278;49.732;7.690;2022-09-16T09:17:28;9.65;;;5.28;;
61411;SDS011;47278;49.732;7.690;2022-09-16T09:31:27;7.32;;;2.10;;
61411;SDS011;47278;49.732;7.690;2022-09-16T09:39:18;5.82;;;1.67;;
61411;SDS011;47278;49.732;7.690;2022-09-16T09:47:31;8.35;;;2.03;;
61411;SDS011;47278;49.732;7.690;2022-09-16T09:50:10;4.05;;;1.67;;
61411;SDS011;47278;49.732;7.690;2022-09-16T09:52:44;2.72;;;1.15;;
61411;SDS011;47278;49.732;7.690;2022-09-16T09:55:21;3.33;;;1.05;;
61411;SDS011;47278;49.732;7.690;2022-09-16T09:57:54;4.30;;;1.40;;
61411;SDS011;47278;49.732;7.690;2022-09-16T10:00:24;6.57;;;3.83;;
61411;SDS011;47278;49.732;7.690;2022-09-16T10:02:50;2.80;;;1.17;;
61411;SDS011;47278;49.732;7.690;2022-09-16T10:05:21;3.33;;;1.25;;
61411;SDS011;47278;49.732;7.690;2022-09-16T10:07:52;4.55;;;2.35;;
61411;SDS011;47278;49.732;7.690;2022-09-16T10:10:20;5.25;;;1.30;;
61411;SDS011;47278;49.732;7.690;2022-09-16T10:12:49;2.90;;;1.20;;
61411;SDS011;47278;49.732;7.690;2022-09-16T10:17:52;4.63;;;2.75;;
61411;SDS011;47278;49.732;7.690;2022-09-16T10:20:27;2.55;;;1.55;;
61411;SDS011;47278;49.732;7.690;2022-09-16T10:23:03;4.03;;;1.73;;
61411;SDS011;47278;49.732;7.690;2022-09-16T10:25:33;4.50;;;1.30;;
61411;SDS011;47278;49.732;7.690;2022-09-16T10:28:00;3.20;;;1.40;;
61411;SDS011;47278;49.732;7.690;2022-09-16T10:30:31;3.05;;;1.40;;
61411;SDS011;47278;49.732;7.690;2022-09-16T10:33:23;5.22;;;2.95;;
61411;SDS011;47278;49.732;7.690;2022-09-16T10:35:56;3.67;;;1.90;;
61411;SDS011;47278;49.732;7.690;2022-09-16T10:38:40;2.90;;;1.20;;
61411;SDS011;47278;49.732;7.690;2022-09-16T10:41:18;3.85;;;1.60;;
61411;SDS011;47278;49.732;7.690;2022-09-16T10:44:22;5.20;;;1.50;;
61411;SDS011;47278;49.732;7.690;2022-09-16T10:46:49;2.63;;;1.65;;
61411;SDS011;47278;49.732;7.690;2022-09-16T10:49:15;1.58;;;1.08;;
61411;SDS011;47278;49.732;7.690;2022-09-16T10:51:45;2.33;;;1.60;;
61411;SDS011;47278;49.732;7.690;2022-09-16T10:54:23;1.67;;;1.05;;
61411;SDS011;47278;49.732;7.690;2022-09-16T10:56:52;3.78;;;2.08;;
61411;SDS011;47278;49.732;7.690;2022-09-16T10:59:18;1.60;;;1.05;;
61411;SDS011;47278;49.732;7.690;2022-09-16T11:04:49;3.72;;;1.40;;
61411;SDS011;47278;49.732;7.690;2022-09-16T11:15:18;2.40;;;1.40;;
61411;SDS011;47278;49.732;7.690;2022-09-16T11:32:22;6.03;;;1.50;;
61411;SDS011;47278;49.732;7.690;2022-09-16T11:38:36;3.35;;;1.20;;
61411;SDS011;47278;49.732;7.690;2022-09-16T11:41:02;3.85;;;1.60;;
61411;SDS011;47278;49.732;7.690;2022-09-16T11:46:27;3.00;;;1.10;;
61411;SDS011;47278;49.732;7.690;2022-09-16T11:49:05;4.03;;;1.80;;
61411;SDS011;47278;49.732;7.690;2022-09-16T11:54:41;2.97;;;1.63;;
61411;SDS011;47278;49.732;7.690;2022-09-16T11:57:15;2.65;;;1.40;;
61411;SDS011;47278;49.732;7.690;2022-09-16T11:59:56;4.00;;;1.45;;
61411;SDS011;47278;49.732;7.690;2022-09-16T12:02:28;4.28;;;2.28;;
61411;SDS011;47278;49.732;7.690;2022-09-16T12:05:20;2.10;;;1.42;;
61411;SDS011;47278;49.732;7.690;2022-09-16T12:08:23;4.38;;;1.27;;
61411;SDS011;47278;49.732;7.690;2022-09-16T12:10:55;3.05;;;1.20;;
61411;SDS011;47278;49.732;7.690;2022-09-16T12:16:14;3.35;;;1.42;;
61411;SDS011;47278;49.732;7.690;2022-09-16T12:18:44;2.20;;;1.20;;
61411;SDS011;47278;49.732;7.690;2022-09-16T12:24:05;2.17;;;1.20;;
61411;SDS011;47278;49.732;7.690;2022-09-16T12:26:41;2.28;;;1.23;;
61411;SDS011;47278;49.732;7.690;2022-09-16T12:29:18;2.22;;;1.10;;
61411;SDS011;47278;49.732;7.690;2022-09-16T12:31:54;6.18;;;1.30;;
61411;SDS011;47278;49.732;7.690;2022-09-16T12:34:26;4.32;;;1.40;;
61411;SDS011;47278;49.732;7.690;2022-09-16T12:40:26;4.88;;;1.20;;
61411;SDS011;47278;49.732;7.690;2022-09-16T12:51:10;1.40;;;0.88;;
61411;SDS011;47278;49.732;7.690;2022-09-16T12:56:34;1.17;;;0.82;;
61411;SDS011;47278;49.732;7.690;2022-09-16T13:02:09;1.27;;;0.77;;
61411;SDS011;47278;49.732;7.690;2022-09-16T13:04:39;2.60;;;1.38;;
61411;SDS011;47278;49.732;7.690;2022-09-16T13:07:14;1.20;;;0.80;;
61411;SDS011;47278;49.732;7.690;2022-09-16T13:10:00;0.70;;;0.70;;
61411;SDS011;47278;49.732;7.690;2022-09-16T13:12:28;1.23;;;0.90;;
61411;SDS011;47278;49.732;7.690;2022-09-16T13:14:55;1.40;;;1.20;;
61411;SDS011;47278;49.732;7.690;2022-09-16T13:17:27;2.17;;;1.65;;
61411;SDS011;47278;49.732;7.690;2022-09-16T13:23:03;0.80;;;0.80;;
61411;SDS011;47278;49.732;7.690;2022-09-16T13:25:50;3.03;;;1.00;;
61411;SDS011;47278;49.732;7.690;2022-09-16T13:33:35;1.42;;;0.80;;
61411;SDS011;47278;49.732;7.690;2022-09-16T13:38:38;1.80;;;0.70;;
61411;SDS011;47278;49.732;7.690;2022-09-16T13:41:27;2.17;;;1.00;;
61411;SDS011;47278;49.732;7.690;2022-09-16T13:43:55;1.42;;;0.80;;
61411;SDS011;47278;49.732;7.690;2022-09-16T13:46:25;2.92;;;1.42;;
61411;SDS011;47278;49.732;7.690;2022-09-16T13:51:39;1.02;;;0.90;;
61411;SDS011;47278;49.732;7.690;2022-09-16T13:54:25;1.58;;;0.80;;
61411;SDS011;47278;49.732;7.690;2022-09-16T13:57:02;1.58;;;1.00;;
61411;SDS011;47278;49.732;7.690;2022-09-16T14:13:11;0.85;;;0.70;;
61411;SDS011;47278;49.732;7.690;2022-09-16T14:15:42;0.75;;;0.75;;
61411;SDS011;47278;49.732;7.690;2022-09-16T14:18:11;1.20;;;0.63;;
61411;SDS011;47278;49.732;7.690;2022-09-16T14:20:49;1.42;;;0.70;;
61411;SDS011;47278;49.732;7.690;2022-09-16T14:23:18;1.65;;;0.52;;
61411;SDS011;47278;49.732;7.690;2022-09-16T14:25:47;1.95;;;1.23;;
61411;SDS011;47278;49.732;7.690;2022-09-16T14:28:24;2.22;;;1.10;;
61411;SDS011;47278;49.732;7.690;2022-09-16T14:33:28;2.28;;;1.05;;
61411;SDS011;47278;49.732;7.690;2022-09-16T14:35:58;1.17;;;0.80;;
61411;SDS011;47278;49.732;7.690;2022-09-16T14:38:33;1.48;;;1.00;;
61411;SDS011;47278;49.732;7.690;2022-09-16T14:41:04;1.38;;;0.90;;
61411;SDS011;47278;49.732;7.690;2022-09-16T14:43:32;1.05;;;0.80;;
61411;SDS011;47278;49.732;7.690;2022-09-16T14:45:58;1.77;;;0.93;;
61411;SDS011;47278;49.732;7.690;2022-09-16T14:48:29;1.10;;;0.80;;
61411;SDS011;47278;49.732;7.690;2022-09-16T14:50:58;0.88;;;0.70;;
61411;SDS011;47278;49.732;7.690;2022-09-16T14:53:30;1.40;;;0.90;;
61411;SDS011;47278;49.732;7.690;2022-09-16T14:55:57;2.47;;;1.20;;
61411;SDS011;47278;49.732;7.690;2022-09-16T14:58:24;4.32;;;0.90;;
61411;SDS011;47278;49.732;7.690;2022-09-16T15:06:21;1.75;;;1.20;;
61411;SDS011;47278;49.732;7.690;2022-09-16T15:08:59;1.00;;;0.73;;
61411;SDS011;47278;49.732;7.690;2022-09-16T15:11:44;2.67;;;1.77;;
61411;SDS011;47278;49.732;7.690;2022-09-16T15:14:12;3.33;;;0.95;;
61411;SDS011;47278;49.732;7.690;2022-09-16T15:16:39;1.23;;;0.73;;
61411;SDS011;47278;49.732;7.690;2022-09-16T15:19:19;1.98;;;0.95;;
61411;SDS011;47278;49.732;7.690;2022-09-16T15:21:49;2.22;;;0.90;;
61411;SDS011;47278;49.732;7.690;2022-09-16T15:24:17;1.20;;;0.90;;
61411;SDS011;47278;49.732;7.690;2022-09-16T15:26:48;0.90;;;0.80;;
61411;SDS011;47278;49.732;7.690;2022-09-16T15:31:46;1.17;;;0.90;;
61411;SDS011;47278;49.732;7.690;2022-09-16T15:36:43;2.08;;;1.30;;
61411;SDS011;47278;49.732;7.690;2022-09-16T15:47:17;3.35;;;0.75;;
61411;SDS011;47278;49.732;7.690;2022-09-16T15:49:48;1.40;;;0.80;;
61411;SDS011;47278;49.732;7.690;2022-09-16T15:52:17;0.70;;;0.70;;
61411;SDS011;47278;49.732;7.690;2022-09-16T15:59:56;1.50;;;1.10;;
61411;SDS011;47278;49.732;7.690;2022-09-16T16:05:17;1.83;;;1.27;;
61411;SDS011;47278;49.732;7.690;2022-09-16T16:10:19;1.92;;;0.80;;
61411;SDS011;47278;49.732;7.690;2022-09-16T16:12:47;1.35;;;0.77;;
61411;SDS011;47278;49.732;7.690;2022-09-16T16:15:14;1.40;;;0.88;;
61411;SDS011;47278;49.732;7.690;2022-09-16T16:17:42;1.25;;;0.80;;
61411;SDS011;47278;49.732;7.690;2022-09-16T16:20:09;1.88;;;0.90;;
61411;SDS011;47278;49.732;7.690;2022-09-16T16:22:37;3.53;;;0.82;;
61411;SDS011;47278;49.732;7.690;2022-09-16T16:25:04;0.73;;;0.73;;
61411;SDS011;47278;49.732;7.690;2022-09-16T16:27:30;3.92;;;0.90;;
61411;SDS011;47278;49.732;7.690;2022-09-16T16:29:56;1.77;;;1.42;;
61411;SDS011;47278;49.732;7.690;2022-09-16T16:32:22;2.30;;;1.02;;
61411;SDS011;47278;49.732;7.690;2022-09-16T16:34:48;1.65;;;0.90;;
61411;SDS011;47278;49.732;7.690;2022-09-16T16:37:14;1.30;;;1.08;;
61411;SDS011;47278;49.732;7.690;2022-09-16T16:39:41;1.98;;;1.30;;
61411;SDS011;47278;49.732;7.690;2022-09-16T16:42:08;2.47;;;1.10;;
61411;SDS011;47278;49.732;7.690;2022-09-16T16:44:38;1.30;;;1.20;;
61411;SDS011;47278;49.732;7.690;2022-09-16T16:47:04;1.60;;;0.90;;
61411;SDS011;47278;49.732;7.690;2022-09-16T16:49:30;1.00;;;0.90;;
61411;SDS011;47278;49.732;7.690;2022-09-16T16:51:57;1.52;;;0.90;;
61411;SDS011;47278;49.732;7.690;2022-09-16T16:54:24;1.23;;;0.90;;
61411;SDS011;47278;49.732;7.690;2022-09-16T16:56:50;1.30;;;0.90;;
61411;SDS011;47278;49.732;7.690;2022-09-16T16:59:16;2.28;;;0.90;;
61411;SDS011;47278;49.732;7.690;2022-09-16T17:01:43;1.55;;;1.08;;
61411;SDS011;47278;49.732;7.690;2022-09-16T17:04:10;3.40;;;0.93;;
61411;SDS011;47278;49.732;7.690;2022-09-16T17:06:36;0.93;;;0.93;;
61411;SDS011;47278;49.732;7.690;2022-09-16T17:09:04;0.80;;;0.70;;
61411;SDS011;47278;49.732;7.690;2022-09-16T17:11:30;1.00;;;0.90;;
61411;SDS011;47278;49.732;7.690;2022-09-16T17:14:00;1.00;;;0.80;;
61411;SDS011;47278;49.732;7.690;2022-09-16T17:16:28;4.03;;;0.90;;
61411;SDS011;47278;49.732;7.690;2022-09-16T17:18:56;1.92;;;0.90;;
61411;SDS011;47278;49.732;7.690;2022-09-16T17:21:23;1.95;;;1.00;;
61411;SDS011;47278;49.732;7.690;2022-09-16T17:23:51;2.72;;;1.30;;
61411;SDS011;47278;49.732;7.690;2022-09-16T17:26:17;1.58;;;1.10;;
61411;SDS011;47278;49.732;7.690;2022-09-16T17:28:44;1.33;;;1.00;;
61411;SDS011;47278;49.732;7.690;2022-09-16T17:31:21;1.75;;;1.10;;
61411;SDS011;47278;49.732;7.690;2022-09-16T17:33:51;1.60;;;1.17;;
61411;SDS011;47278;49.732;7.690;2022-09-16T17:36:18;3.75;;;1.70;;
61411;SDS011;47278;49.732;7.690;2022-09-16T17:38:46;2.33;;;1.30;;
61411;SDS011;47278;49.732;7.690;2022-09-16T17:41:13;1.30;;;1.08;;
61411;SDS011;47278;49.732;7.690;2022-09-16T17:43:40;1.40;;;0.80;;
61411;SDS011;47278;49.732;7.690;2022-09-16T17:46:11;2.25;;;0.85;;
61411;SDS011;47278;49.732;7.690;2022-09-16T17:48:39;1.38;;;0.90;;
61411;SDS011;47278;49.732;7.690;2022-09-16T17:51:05;0.93;;;0.80;;
61411;SDS011;47278;49.732;7.690;2022-09-16T17:53:31;0.80;;;0.60;;
61411;SDS011;47278;49.732;7.690;2022-09-16T17:56:01;1.50;;;1.15;;
61411;SDS011;47278;49.732;7.690;2022-09-16T17:58:38;5.53;;;1.70;;
61411;SDS011;47278;49.732;7.690;2022-09-16T18:01:10;3.47;;;2.33;;
61411;SDS011;47278;49.732;7.690;2022-09-16T18:03:38;3.50;;;2.00;;
61411;SDS011;47278;49.732;7.690;2022-09-16T18:06:07;2.42;;;1.40;;
61411;SDS011;47278;49.732;7.690;2022-09-16T18:08:35;2.83;;;2.10;;
61411;SDS011;47278;49.732;7.690;2022-09-16T18:11:01;4.45;;;1.65;;
61411;SDS011;47278;49.732;7.690;2022-09-16T18:13:27;2.17;;;1.20;;
61411;SDS011;47278;49.732;7.690;2022-09-16T18:15:53;3.25;;;1.77;;
61411;SDS011;47278;49.732;7.690;2022-09-16T18:18:19;13.55;;;8.30;;
61411;SDS011;47278;49.732;7.690;2022-09-16T18:20:53;15.73;;;7.00;;
61411;SDS011;47278;49.732;7.690;2022-09-16T18:23:19;11.85;;;5.50;;
61411;SDS011;47278;49.732;7.690;2022-09-16T18:25:45;26.85;;;13.00;;
61411;SDS011;47278;49.732;7.690;2022-09-16T18:28:11;32.83;;;13.05;;
61411;SDS011;47278;49.732;7.690;2022-09-16T18:30:37;16.38;;;8.07;;
61411;SDS011;47278;49.732;7.690;2022-09-16T18:33:02;7.82;;;3.40;;
61411;SDS011;47278;49.732;7.690;2022-09-16T18:35:28;7.47;;;3.10;;
61411;SDS011;47278;49.732;7.690;2022-09-16T18:37:54;6.60;;;2.35;;
61411;SDS011;47278;49.732;7.690;2022-09-16T18:40:19;4.18;;;2.10;;
61411;SDS011;47278;49.732;7.690;2022-09-16T18:42:45;3.22;;;1.60;;
61411;SDS011;47278;49.732;7.690;2022-09-16T18:45:11;2.70;;;1.40;;
61411;SDS011;47278;49.732;7.690;2022-09-16T18:47:36;2.50;;;1.85;;
61411;SDS011;47278;49.732;7.690;2022-09-16T18:50:02;5.13;;;3.38;;
61411;SDS011;47278;49.732;7.690;2022-09-16T18:52:28;2.30;;;1.13;;
61411;SDS011;47278;49.732;7.690;2022-09-16T18:54:53;3.03;;;2.50;;
61411;SDS011;47278;49.732;7.690;2022-09-16T18:57:19;2.75;;;2.22;;
61411;SDS011;47278;49.732;7.690;2022-09-16T18:59:47;3.80;;;1.58;;
61411;SDS011;47278;49.732;7.690;2022-09-16T19:02:12;2.90;;;2.10;;
61411;SDS011;47278;49.732;7.690;2022-09-16T19:04:39;2.70;;;1.48;;
61411;SDS011;47278;49.732;7.690;2022-09-16T19:07:08;6.55;;;2.13;;
61411;SDS011;47278;49.732;7.690;2022-09-16T19:09:36;2.90;;;1.48;;
61411;SDS011;47278;49.732;7.690;2022-09-16T19:12:07;4.22;;;1.75;;
61411;SDS011;47278;49.732;7.690;2022-09-16T19:14:35;1.65;;;1.42;;
61411;SDS011;47278;49.732;7.690;2022-09-16T19:17:01;3.30;;;1.60;;
61411;SDS011;47278;49.732;7.690;2022-09-16T19:19:26;2.35;;;1.40;;
61411;SDS011;47278;49.732;7.690;2022-09-16T19:21:52;2.05;;;1.10;;
61411;SDS011;47278;49.732;7.690;2022-09-16T19:24:19;1.80;;;1.50;;
61411;SDS011;47278;49.732;7.690;2022-09-16T19:26:47;2.28;;;1.30;;
61411;SDS011;47278;49.732;7.690;2022-09-16T19:29:14;2.58;;;1.70;;
61411;SDS011;47278;49.732;7.690;2022-09-16T19:31:41;4.07;;;1.55;;
61411;SDS011;47278;49.732;7.690;2022-09-16T19:34:08;2.78;;;2.10;;
61411;SDS011;47278;49.732;7.690;2022-09-16T19:36:35;2.55;;;1.30;;
61411;SDS011;47278;49.732;7.690;2022-09-16T19:39:01;3.92;;;1.05;;
61411;SDS011;47278;49.732;7.690;2022-09-16T19:41:29;2.38;;;1.20;;
61411;SDS011;47278;49.732;7.690;2022-09-16T19:43:59;3.25;;;1.10;;
61411;SDS011;47278;49.732;7.690;2022-09-16T19:46:27;2.67;;;1.33;;
61411;SDS011;47278;49.732;7.690;2022-09-16T19:48:53;1.67;;;0.90;;
61411;SDS011;47278;49.732;7.690;2022-09-16T19:51:20;2.92;;;0.80;;